createdAt,value
2023-02-02T00:01:21.759Z,87.87
2023-02-02T00:03:50.990Z,86.31
2023-02-02T00:06:20.660Z,85.99
2023-02-02T00:08:48.058Z,86.75
2023-02-02T00:11:15.302Z,86.64
2023-02-02T00:13:42.135Z,87.45
2023-02-02T00:16:27.190Z,86.45
2023-02-02T00:18:56.752Z,86.52
2023-02-02T00:21:24.424Z,86.28
2023-02-02T00:23:51.798Z,86.27
2023-02-02T00:26:19.239Z,86.45
2023-02-02T00:28:46.224Z,87.46
2023-02-02T00:31:12.924Z,86.31
2023-02-02T00:33:41.290Z,86.41
2023-02-02T00:36:08.341Z,86.56
2023-02-02T00:38:35.122Z,86.15
2023-02-02T00:41:01.626Z,86.36
2023-02-02T00:43:28.154Z,86.76
2023-02-02T00:45:54.827Z,86.39
2023-02-02T00:48:21.400Z,86.66
2023-02-02T00:50:48.170Z,86.74
2023-02-02T00:53:14.812Z,86.73
2023-02-02T00:55:41.286Z,86.73
2023-02-02T00:58:07.747Z,86.81
2023-02-02T01:00:34.321Z,86.91
2023-02-02T01:03:04.610Z,87.22
2023-02-02T01:05:32.008Z,87.09
2023-02-02T01:07:58.550Z,86.90
2023-02-02T01:10:25.203Z,87.39
2023-02-02T01:12:52.075Z,87.20
2023-02-02T01:15:18.858Z,87.40
2023-02-02T01:17:45.485Z,88.28
2023-02-02T01:20:19.479Z,88.90
2023-02-02T01:22:47.289Z,88.31
2023-02-02T01:25:14.309Z,88.15
2023-02-02T01:27:40.936Z,88.19
2023-02-02T01:30:08.410Z,87.97
2023-02-02T01:32:34.879Z,88.10
2023-02-02T01:35:01.421Z,88.17
2023-02-02T01:37:28.025Z,88.28
2023-02-02T01:39:54.471Z,87.84
2023-02-02T01:42:22.624Z,88.12
2023-02-02T01:45:19.397Z,87.75
2023-02-02T01:47:54.790Z,88.22
2023-02-02T01:50:26.123Z,87.91
2023-02-02T01:52:55.681Z,87.58
2023-02-02T01:55:25.321Z,88.66
2023-02-02T01:58:00.688Z,88.18
2023-02-02T02:00:27.867Z,87.69
2023-02-02T02:02:59.174Z,87.47
2023-02-02T02:05:32.743Z,87.91
2023-02-02T02:08:12.268Z,87.95
2023-02-02T02:10:39.067Z,87.68
2023-02-02T02:13:06.564Z,87.65
2023-02-02T02:16:00.500Z,88.24
2023-02-02T02:18:54.781Z,88.33
2023-02-02T02:21:49.221Z,87.39
2023-02-02T02:24:53.090Z,87.83
2023-02-02T02:27:44.516Z,88.10
2023-02-02T02:30:39.035Z,88.02
2023-02-02T02:33:21.898Z,88.83
2023-02-02T02:36:18.212Z,87.93
2023-02-02T02:38:54.595Z,88.88
2023-02-02T02:41:27.127Z,88.18
2023-02-02T02:44:02.462Z,88.39
2023-02-02T02:46:29.428Z,88.26
2023-02-02T02:49:00.744Z,88.11
2023-02-02T02:51:49.384Z,88.33
2023-02-02T02:54:22.438Z,88.39
2023-02-02T02:57:11.081Z,88.40
2023-02-02T02:59:44.509Z,88.30
2023-02-02T03:02:30.141Z,89.29
2023-02-02T03:05:15.958Z,88.88
2023-02-02T03:07:51.260Z,88.97
2023-02-02T03:10:20.607Z,89.09
2023-02-02T03:12:48.884Z,89.39
2023-02-02T03:15:17.571Z,89.43
2023-02-02T03:17:47.577Z,89.52
2023-02-02T03:20:14.358Z,88.84
2023-02-02T03:22:40.916Z,89.47
2023-02-02T03:25:11.072Z,89.53
2023-02-02T03:27:39.426Z,89.49
2023-02-02T03:30:09.157Z,89.48
2023-02-02T03:32:36.556Z,89.21
2023-02-02T03:35:03.939Z,89.36
2023-02-02T03:37:30.581Z,89.16
2023-02-02T03:39:57.219Z,89.61
2023-02-02T03:42:23.808Z,89.38
2023-02-02T03:44:50.347Z,89.45
2023-02-02T03:47:16.928Z,89.06
2023-02-02T03:49:43.667Z,89.30
2023-02-02T03:52:10.381Z,89.20
2023-02-02T03:54:36.939Z,89.31
2023-02-02T03:57:03.525Z,88.99
2023-02-02T03:59:30.240Z,88.92
2023-02-02T04:01:56.944Z,88.66
2023-02-02T04:04:23.632Z,89.01
2023-02-02T04:06:50.343Z,88.90
2023-02-02T04:09:16.931Z,88.95
2023-02-02T04:11:43.494Z,88.77
2023-02-02T04:14:10.572Z,88.90
2023-02-02T04:16:37.910Z,88.79
2023-02-02T04:19:04.942Z,88.40
2023-02-02T04:21:31.553Z,88.96
2023-02-02T04:23:58.137Z,88.70
2023-02-02T04:26:26.287Z,88.56
2023-02-02T04:28:53.769Z,88.19
2023-02-02T04:31:20.577Z,88.46
2023-02-02T04:33:47.324Z,88.30
2023-02-02T04:36:14.297Z,88.29
2023-02-02T04:38:40.867Z,88.05
2023-02-02T04:41:09.459Z,88.30
2023-02-02T04:43:37.674Z,88.31
2023-02-02T04:46:04.839Z,87.89
2023-02-02T04:48:31.872Z,87.91
2023-02-02T04:51:00.382Z,87.59
2023-02-02T04:53:27.398Z,87.83
2023-02-02T04:55:53.956Z,87.69
2023-02-02T04:58:20.507Z,87.66
2023-02-02T05:00:47.177Z,87.50
2023-02-02T05:03:13.734Z,87.60
2023-02-02T05:05:40.324Z,87.35
2023-02-02T05:08:08.339Z,87.33
2023-02-02T05:10:34.912Z,87.30
2023-02-02T05:13:01.578Z,87.42
2023-02-02T05:15:28.251Z,87.31
2023-02-02T05:17:54.818Z,87.41
2023-02-02T05:20:21.411Z,87.32
2023-02-02T05:22:51.045Z,87.35
2023-02-02T05:25:18.191Z,87.45
2023-02-02T05:27:45.793Z,87.33
2023-02-02T05:30:14.259Z,87.66
2023-02-02T05:32:41.480Z,87.75
2023-02-02T05:35:10.299Z,87.75
2023-02-02T05:37:36.931Z,87.81
2023-02-02T05:40:04.232Z,87.97
2023-02-02T05:42:30.904Z,87.95
2023-02-02T05:44:57.481Z,88.04
2023-02-02T05:47:24.044Z,88.25
2023-02-02T05:49:50.644Z,88.25
2023-02-02T05:52:20.700Z,88.07
2023-02-02T05:54:47.270Z,88.34
2023-02-02T05:57:13.909Z,88.14
2023-02-02T05:59:40.425Z,87.85
2023-02-02T06:02:07.191Z,88.05
2023-02-02T06:04:33.779Z,88.30
2023-02-02T06:07:00.277Z,88.34
2023-02-02T06:09:26.732Z,88.74
2023-02-02T06:11:53.303Z,88.83
2023-02-02T06:14:19.977Z,88.87
2023-02-02T06:16:46.701Z,89.39
2023-02-02T06:19:13.327Z,89.42
2023-02-02T06:21:39.927Z,88.98
2023-02-02T06:24:07.178Z,89.06
2023-02-02T06:26:33.851Z,88.92
2023-02-02T06:29:00.434Z,89.16
2023-02-02T06:31:27.147Z,89.32
2023-02-02T06:33:58.782Z,89.60
2023-02-02T06:36:27.183Z,89.56
2023-02-02T06:38:55.675Z,89.32
2023-02-02T06:41:22.619Z,89.28
2023-02-02T06:43:49.399Z,89.51
2023-02-02T06:46:16.646Z,89.62
2023-02-02T06:48:43.259Z,89.83
2023-02-02T06:51:09.801Z,89.88
2023-02-02T06:53:36.399Z,90.13
2023-02-02T06:56:05.583Z,89.91
2023-02-02T06:58:33.673Z,90.51
2023-02-02T07:01:10.000Z,90.41
2023-02-02T07:03:37.091Z,90.33
2023-02-02T07:06:24.217Z,90.64
2023-02-02T07:09:01.191Z,90.30
2023-02-02T07:11:30.871Z,90.73
2023-02-02T07:13:57.920Z,90.42
2023-02-02T07:16:24.685Z,90.62
2023-02-02T07:18:51.278Z,90.46
2023-02-02T07:21:20.210Z,90.28
2023-02-02T07:23:47.492Z,90.84
2023-02-02T07:26:15.300Z,90.75
2023-02-02T07:28:42.661Z,90.80
2023-02-02T07:31:21.352Z,90.94
2023-02-02T07:33:48.660Z,91.26
2023-02-02T07:36:18.676Z,91.15
2023-02-02T07:38:47.210Z,91.61
2023-02-02T07:41:15.140Z,91.97
2023-02-02T07:43:42.293Z,92.20
2023-02-02T07:46:12.934Z,92.64
2023-02-02T07:48:40.955Z,92.09
2023-02-02T07:51:11.218Z,92.64
2023-02-02T07:53:37.823Z,93.04
2023-02-02T07:56:18.942Z,92.29
2023-02-02T07:58:45.745Z,92.74
2023-02-02T08:01:14.762Z,92.31
2023-02-02T08:03:42.995Z,92.48
2023-02-02T08:06:16.025Z,92.34
2023-02-02T08:08:42.716Z,91.84
2023-02-02T08:11:11.488Z,92.04
2023-02-02T08:13:39.342Z,91.47
2023-02-02T08:16:06.846Z,90.78
2023-02-02T08:18:34.920Z,91.41
2023-02-02T08:21:02.802Z,91.68
2023-02-02T08:23:29.581Z,91.16
2023-02-02T08:26:11.427Z,89.73
2023-02-02T08:28:39.490Z,90.77
2023-02-02T08:31:16.614Z,90.58
2023-02-02T08:33:43.771Z,89.78
2023-02-02T08:36:19.586Z,89.66
2023-02-02T08:38:47.094Z,89.13
2023-02-02T08:41:18.141Z,88.88
2023-02-02T08:43:45.008Z,89.03
2023-02-02T08:46:14.686Z,87.48
2023-02-02T08:48:41.841Z,88.21
2023-02-02T08:51:11.951Z,87.94
2023-02-02T08:53:39.051Z,87.74
2023-02-02T08:56:10.360Z,87.69
2023-02-02T08:58:37.132Z,87.34
2023-02-02T09:01:06.285Z,87.03
2023-02-02T09:03:34.916Z,87.51
2023-02-02T09:06:06.833Z,85.09
2023-02-02T09:08:34.400Z,86.17
2023-02-02T09:11:07.811Z,86.16
2023-02-02T09:13:35.882Z,86.19
2023-02-02T09:16:05.190Z,86.17
2023-02-02T09:18:32.676Z,85.60
2023-02-02T09:21:01.587Z,85.66
2023-02-02T09:23:33.320Z,85.06
2023-02-02T09:26:19.838Z,84.94
2023-02-02T09:28:52.054Z,84.35
2023-02-02T09:31:19.051Z,84.89
2023-02-02T09:33:45.963Z,83.43
2023-02-02T09:36:17.537Z,84.90
2023-02-02T09:38:44.627Z,83.80
2023-02-02T09:41:26.253Z,84.35
2023-02-02T09:44:12.185Z,84.25
2023-02-02T09:47:20.042Z,84.23
2023-02-02T09:50:04.349Z,84.80
2023-02-02T09:52:44.510Z,84.37
2023-02-02T09:55:13.920Z,83.72
2023-02-02T09:57:48.961Z,83.61
2023-02-02T10:00:30.707Z,83.93
2023-02-02T10:03:04.448Z,84.28
2023-02-02T10:05:47.583Z,84.39
2023-02-02T10:08:34.311Z,84.53
2023-02-02T10:11:22.910Z,84.17
2023-02-02T10:13:53.084Z,83.45
2023-02-02T10:16:22.468Z,82.89
2023-02-02T10:18:57.896Z,83.36
2023-02-02T10:21:40.346Z,82.59
2023-02-02T10:24:17.952Z,83.09
2023-02-02T10:26:51.815Z,83.04
2023-02-02T10:29:48.596Z,83.42
2023-02-02T10:32:23.870Z,82.33
2023-02-02T10:35:21.930Z,82.61
2023-02-02T10:38:10.032Z,82.76
2023-02-02T10:40:47.770Z,83.28
2023-02-02T10:43:46.475Z,83.30
2023-02-02T10:46:24.048Z,81.28
2023-02-02T10:48:52.941Z,82.84
2023-02-02T10:51:28.360Z,82.69
2023-02-02T10:53:58.958Z,82.85
2023-02-02T10:56:54.035Z,83.23
2023-02-02T10:59:32.019Z,83.34
2023-02-02T11:02:08.714Z,83.77
2023-02-02T11:05:00.812Z,82.91
2023-02-02T11:07:27.384Z,82.86
2023-02-02T11:09:54.336Z,83.03
2023-02-02T11:12:34.959Z,82.62
2023-02-02T11:15:22.433Z,82.27
2023-02-02T11:17:48.961Z,82.33
2023-02-02T11:20:24.868Z,82.56
2023-02-02T11:23:02.025Z,82.89
2023-02-02T11:25:35.297Z,81.64
2023-02-02T11:28:18.826Z,82.45
2023-02-02T11:30:52.532Z,81.06
2023-02-02T11:33:28.489Z,82.03
2023-02-02T11:36:06.735Z,82.13
2023-02-02T11:38:33.612Z,82.08
2023-02-02T11:41:11.163Z,81.58
2023-02-02T11:43:41.900Z,81.30
2023-02-02T11:46:20.773Z,81.09
2023-02-02T11:48:54.572Z,81.08
2023-02-02T11:51:24.166Z,81.19
2023-02-02T11:54:07.524Z,81.30
2023-02-02T11:56:36.925Z,81.10
2023-02-02T11:59:04.019Z,80.45
2023-02-02T12:01:41.059Z,81.16
2023-02-02T12:04:16.215Z,80.13
2023-02-02T12:06:43.400Z,81.02
2023-02-02T12:09:23.619Z,79.60
2023-02-02T12:12:22.157Z,79.52
2023-02-02T12:14:55.469Z,79.95
2023-02-02T12:17:33.139Z,79.67
2023-02-02T12:20:36.779Z,79.73
2023-02-02T12:23:40.193Z,79.71
2023-02-02T12:26:22.505Z,79.92
2023-02-02T12:29:26.943Z,79.64
2023-02-02T12:32:05.523Z,79.30
2023-02-02T12:34:53.662Z,79.45
2023-02-02T12:37:41.240Z,80.34
2023-02-02T12:40:47.724Z,79.72
2023-02-02T12:43:41.976Z,79.89
2023-02-02T12:46:33.861Z,78.68
2023-02-02T12:49:22.284Z,79.72
2023-02-02T12:52:02.621Z,79.24
2023-02-02T12:54:52.110Z,79.82
2023-02-02T12:58:05.145Z,80.02
2023-02-02T13:01:03.349Z,80.14
2023-02-02T13:04:00.382Z,80.54
2023-02-02T13:07:04.696Z,79.97
2023-02-02T13:09:48.706Z,80.48
2023-02-02T13:12:19.954Z,81.44
2023-02-02T13:14:57.878Z,81.29
2023-02-02T13:17:33.948Z,81.54
2023-02-02T13:20:11.652Z,81.81
2023-02-02T13:22:43.037Z,82.70
2023-02-02T13:25:23.396Z,82.63
2023-02-02T13:27:54.908Z,82.66
2023-02-02T13:30:26.994Z,83.08
2023-02-02T13:32:58.219Z,83.54
2023-02-02T13:35:35.444Z,83.66
2023-02-02T13:38:18.053Z,83.96
2023-02-02T13:40:44.838Z,83.46
2023-02-02T13:43:22.603Z,83.98
2023-02-02T13:46:29.650Z,83.73
2023-02-02T13:49:13.482Z,84.57
2023-02-02T13:51:54.046Z,84.74
2023-02-02T13:55:09.525Z,85.04
2023-02-02T13:57:53.053Z,85.04
2023-02-02T14:00:21.731Z,84.90
2023-02-02T14:02:52.280Z,85.34
2023-02-02T14:05:28.937Z,85.17
2023-02-02T14:08:04.776Z,85.54
2023-02-02T14:10:38.363Z,85.38
2023-02-02T14:13:36.255Z,86.18
2023-02-02T14:16:07.184Z,86.42
2023-02-02T14:18:52.221Z,85.54
2023-02-02T14:21:38.342Z,85.69
2023-02-02T14:24:26.479Z,85.86
2023-02-02T14:27:21.601Z,85.49
2023-02-02T14:29:48.163Z,86.59
2023-02-02T14:32:27.934Z,86.36
2023-02-02T14:35:01.335Z,86.62
2023-02-02T14:37:38.496Z,86.22
2023-02-02T14:40:32.331Z,85.86
2023-02-02T14:43:42.652Z,86.63
2023-02-02T14:46:15.187Z,86.21
2023-02-02T14:49:07.029Z,86.43
2023-02-02T14:51:45.928Z,87.06
2023-02-02T14:54:22.086Z,86.79
2023-02-02T14:56:54.156Z,87.07
2023-02-02T14:59:30.127Z,86.34
2023-02-02T15:02:15.271Z,87.23
2023-02-02T15:04:42.568Z,86.97
2023-02-02T15:07:37.300Z,86.50
2023-02-02T15:10:04.621Z,86.63
2023-02-02T15:12:45.864Z,86.86
2023-02-02T15:15:30.259Z,87.61
2023-02-02T15:18:13.210Z,86.99
2023-02-02T15:20:49.845Z,87.18
2023-02-02T15:23:40.468Z,87.82
2023-02-02T15:26:15.136Z,87.95
2023-02-02T15:28:41.688Z,87.48
2023-02-02T15:31:32.634Z,86.96
2023-02-02T15:34:14.390Z,87.47
2023-02-02T15:36:45.453Z,87.68
2023-02-02T15:39:30.003Z,87.25
2023-02-02T15:42:17.215Z,87.42
2023-02-02T15:44:44.067Z,87.57
2023-02-02T15:47:17.010Z,87.27
2023-02-02T15:49:45.410Z,87.16
2023-02-02T15:52:18.942Z,87.13
2023-02-02T15:54:58.498Z,87.34
2023-02-02T15:57:36.549Z,87.23
2023-02-02T16:00:29.313Z,87.25
2023-02-02T16:03:14.624Z,88.00
2023-02-02T16:05:52.376Z,87.65
2023-02-02T16:08:38.714Z,87.65
2023-02-02T16:11:09.888Z,87.97
2023-02-02T16:13:38.957Z,87.58
2023-02-02T16:16:20.910Z,87.76
2023-02-02T16:19:01.975Z,87.59
2023-02-02T16:21:30.084Z,87.87
2023-02-02T16:24:01.872Z,87.45
2023-02-02T16:26:32.828Z,88.16
2023-02-02T16:28:59.716Z,87.60
2023-02-02T16:31:28.972Z,87.92
2023-02-02T16:33:57.034Z,87.94
2023-02-02T16:36:26.694Z,87.55
2023-02-02T16:38:57.437Z,86.96
2023-02-02T16:41:33.807Z,87.30
2023-02-02T16:44:31.800Z,86.88
2023-02-02T16:47:02.479Z,87.78
2023-02-02T16:49:30.662Z,87.69
2023-02-02T16:52:11.471Z,87.15
2023-02-02T16:54:42.620Z,87.44
2023-02-02T16:57:18.175Z,87.35
2023-02-02T16:59:49.932Z,87.46
2023-02-02T17:02:31.076Z,87.56
2023-02-02T17:05:17.742Z,87.23
2023-02-02T17:07:51.577Z,87.00
2023-02-02T17:10:23.305Z,86.54
2023-02-02T17:12:49.754Z,86.72
2023-02-02T17:15:29.020Z,87.24
2023-02-02T17:17:55.997Z,86.51
2023-02-02T17:20:23.108Z,86.97
2023-02-02T17:22:54.304Z,86.71
2023-02-02T17:25:29.405Z,86.96
2023-02-02T17:27:58.483Z,87.19
2023-02-02T17:30:25.760Z,86.79
2023-02-02T17:32:52.423Z,87.19
2023-02-02T17:35:22.514Z,87.15
2023-02-02T17:37:51.795Z,86.66
2023-02-02T17:40:20.412Z,86.68
2023-02-02T17:42:50.508Z,86.93
2023-02-02T17:45:28.673Z,87.00
2023-02-02T17:47:55.267Z,86.62
2023-02-02T17:50:22.019Z,86.89
2023-02-02T17:52:49.939Z,86.57
2023-02-02T17:55:23.020Z,86.90
2023-02-02T17:57:51.177Z,86.10
2023-02-02T18:00:20.948Z,87.04
2023-02-02T18:02:50.119Z,86.35
2023-02-02T18:05:17.242Z,86.58
2023-02-02T18:07:44.389Z,86.63
2023-02-02T18:10:13.799Z,86.87
2023-02-02T18:12:40.640Z,85.76
2023-02-02T18:15:11.099Z,85.78
2023-02-02T18:17:37.747Z,86.24
2023-02-02T18:20:05.274Z,86.34
2023-02-02T18:22:32.575Z,86.26
2023-02-02T18:24:59.131Z,86.16
2023-02-02T18:27:26.123Z,86.42
2023-02-02T18:29:52.744Z,86.17
2023-02-02T18:32:19.296Z,86.02
2023-02-02T18:34:47.607Z,85.94
2023-02-02T18:37:14.151Z,85.72
2023-02-02T18:39:40.859Z,86.23
2023-02-02T18:42:07.494Z,86.45
2023-02-02T18:44:36.381Z,86.24
2023-02-02T18:47:02.980Z,86.35
2023-02-02T18:49:29.742Z,86.09
2023-02-02T18:51:56.382Z,86.30
2023-02-02T18:54:23.592Z,86.18
2023-02-02T18:56:50.588Z,85.91
2023-02-02T18:59:17.541Z,86.01
2023-02-02T19:01:44.118Z,86.09
2023-02-02T19:04:11.179Z,86.20
2023-02-02T19:06:56.638Z,86.21
2023-02-02T19:09:24.760Z,85.78
2023-02-02T19:11:54.987Z,86.46
2023-02-02T19:14:27.476Z,85.88
2023-02-02T19:17:08.253Z,86.04
2023-02-02T19:19:35.160Z,86.10
2023-02-02T19:22:13.644Z,85.62
2023-02-02T19:24:40.552Z,86.21
2023-02-02T19:27:22.132Z,85.25
2023-02-02T19:29:51.132Z,85.57
2023-02-02T19:32:23.278Z,86.04
2023-02-02T19:34:52.460Z,85.56
2023-02-02T19:37:30.673Z,85.30
2023-02-02T19:40:25.098Z,85.12
2023-02-02T19:42:57.064Z,85.55
2023-02-02T19:45:31.672Z,86.37
2023-02-02T19:48:00.524Z,85.49
2023-02-02T19:50:38.793Z,85.57
2023-02-02T19:53:16.328Z,85.84
2023-02-02T19:55:44.402Z,86.09
2023-02-02T19:58:19.761Z,85.25
2023-02-02T20:00:47.976Z,85.98
2023-02-02T20:03:23.493Z,85.60
2023-02-02T20:05:51.720Z,85.82
2023-02-02T20:08:41.742Z,85.56
2023-02-02T20:11:32.118Z,85.25
2023-02-02T20:14:00.798Z,84.97
2023-02-02T20:16:43.032Z,84.89
2023-02-02T20:19:20.220Z,85.64
2023-02-02T20:21:50.056Z,85.69
2023-02-02T20:24:25.249Z,85.83
2023-02-02T20:26:54.667Z,86.31
2023-02-02T20:29:25.019Z,85.96
2023-02-02T20:31:54.056Z,85.57
2023-02-02T20:34:23.045Z,85.41
2023-02-02T20:36:50.941Z,85.41
2023-02-02T20:39:37.019Z,85.34
2023-02-02T20:42:04.762Z,85.31
2023-02-02T20:44:33.339Z,86.06
2023-02-02T20:47:00.574Z,85.90
2023-02-02T20:49:31.600Z,85.57
2023-02-02T20:52:01.872Z,85.94
2023-02-02T20:54:30.707Z,85.85
2023-02-02T20:56:57.952Z,86.06
2023-02-02T20:59:24.718Z,85.94
2023-02-02T21:01:52.511Z,85.84
2023-02-02T21:04:19.930Z,85.20
2023-02-02T21:06:48.840Z,84.98
2023-02-02T21:09:16.372Z,84.03
2023-02-02T21:11:43.632Z,84.08
2023-02-02T21:14:10.351Z,84.22
2023-02-02T21:16:37.012Z,83.60
2023-02-02T21:19:03.564Z,84.10
2023-02-02T21:21:30.157Z,83.45
2023-02-02T21:23:56.724Z,83.39
2023-02-02T21:26:27.351Z,83.92
2023-02-02T21:28:54.104Z,83.59
2023-02-02T21:31:20.787Z,84.29
2023-02-02T21:33:48.102Z,83.52
2023-02-02T21:36:37.186Z,83.60
2023-02-02T21:39:21.617Z,84.30
2023-02-02T21:41:58.029Z,83.79
2023-02-02T21:44:26.843Z,84.47
2023-02-02T21:46:53.824Z,83.80
2023-02-02T21:49:26.429Z,84.06
2023-02-02T21:51:57.946Z,84.23
2023-02-02T21:54:27.374Z,83.89
2023-02-02T21:56:54.832Z,84.56
2023-02-02T21:59:29.241Z,84.53
2023-02-02T22:01:55.803Z,84.28
2023-02-02T22:04:28.970Z,83.97
2023-02-02T22:07:12.590Z,84.40
2023-02-02T22:09:41.407Z,84.26
2023-02-02T22:12:17.144Z,84.49
2023-02-02T22:14:45.928Z,84.53
2023-02-02T22:17:23.531Z,83.79
2023-02-02T22:19:56.083Z,83.79
2023-02-02T22:22:25.503Z,84.10
2023-02-02T22:25:16.171Z,84.33
2023-02-02T22:27:45.858Z,84.03
2023-02-02T22:30:38.753Z,83.51
2023-02-02T22:33:06.804Z,84.30
2023-02-02T22:35:34.181Z,84.41
2023-02-02T22:38:01.539Z,83.98
2023-02-02T22:40:28.854Z,84.04
2023-02-02T22:42:57.878Z,84.48
2023-02-02T22:45:24.892Z,84.32
2023-02-02T22:47:51.645Z,84.17
2023-02-02T22:50:21.832Z,84.11
2023-02-02T22:52:48.909Z,83.97
2023-02-02T22:55:16.331Z,83.93
2023-02-02T22:57:43.176Z,83.91
2023-02-02T23:00:16.652Z,83.96
2023-02-02T23:02:43.594Z,83.49
2023-02-02T23:05:12.712Z,84.20
2023-02-02T23:07:40.109Z,83.46
2023-02-02T23:10:07.770Z,84.31
2023-02-02T23:12:35.081Z,83.65
2023-02-02T23:15:01.956Z,84.20
2023-02-02T23:17:28.522Z,83.87
2023-02-02T23:19:55.081Z,83.31
2023-02-02T23:22:21.868Z,84.10
2023-02-02T23:24:48.590Z,84.64
2023-02-02T23:27:15.478Z,83.86
2023-02-02T23:29:42.105Z,84.70
2023-02-02T23:32:08.729Z,84.21
2023-02-02T23:34:35.436Z,84.04
2023-02-02T23:37:02.006Z,84.81
2023-02-02T23:39:28.547Z,84.62
2023-02-02T23:41:55.076Z,85.03
2023-02-02T23:44:21.875Z,84.72
2023-02-02T23:46:49.562Z,84.69
2023-02-02T23:49:16.559Z,84.31
2023-02-02T23:51:43.664Z,84.99
2023-02-02T23:54:12.301Z,84.96
2023-02-02T23:56:40.080Z,85.15
2023-02-02T23:59:06.774Z,84.66
